Time;durP1;ratioP1;P1;durP2;ratioP2;P2;SDS_P1;SDS_P2;PMS_P1;PMS_P2;Temp;Humidity;BMP_temperature;BMP_pressure;BME280_temperature;BME280_humidity;BME280_pressure;Samples;Min_cycle;Max_cycle;Signal;HPM_P1;HPM_P2
2021/01/12 00:00:35;;;;;;;31.37;22.47;;;-1.90;99.90;;;-1.20;78.66;98088.91;5250425;28;20224;-80
2021/01/12 00:03:08;;;;;;;28.10;21.20;;;-1.80;99.90;;;-1.11;76.81;98099.88;5243593;28;20295;-80
2021/01/12 00:05:40;;;;;;;29.90;21.23;;;-1.80;99.90;;;-1.00;77.79;98095.97;5229140;28;20197;-80
2021/01/12 00:08:13;;;;;;;25.63;19.47;;;-1.70;99.90;;;-0.75;76.07;98091.91;5235638;28;20211;-80
2021/01/12 00:10:45;;;;;;;28.40;22.73;;;-1.60;99.90;;;-0.74;74.77;98091.19;5249234;28;20196;-79
2021/01/12 00:13:16;;;;;;;31.77;21.73;;;-1.70;99.90;;;-0.69;74.97;98095.03;5242209;28;20221;-79
2021/01/12 00:15:49;;;;;;;25.83;20.43;;;-1.70;99.90;;;-0.64;74.04;98077.97;5234169;28;20276;-78
2021/01/12 00:18:21;;;;;;;27.50;20.00;;;-1.60;99.90;;;-0.70;74.13;98083.22;5235309;28;20689;-80
2021/01/12 00:20:53;;;;;;;27.67;20.67;;;-1.60;99.90;;;-0.69;74.08;98082.50;5228448;28;20311;-80
2021/01/12 00:23:25;;;;;;;26.77;20.30;;;-1.60;99.90;;;-0.71;73.98;98072.31;5242070;28;20600;-78
2021/01/12 00:25:57;;;;;;;26.17;19.70;;;-1.50;99.90;;;-0.70;74.21;98079.09;5240818;28;20207;-80
2021/01/12 00:28:29;;;;;;;22.23;18.30;;;-1.50;99.90;;;-0.66;73.95;98075.28;5249303;28;20197;-79
2021/01/12 00:31:04;;;;;;;26.93;20.20;;;-1.40;99.90;;;-0.75;73.68;98065.19;5229533;28;20200;-80
2021/01/12 00:33:36;;;;;;;25.93;18.70;;;-1.40;99.90;;;-0.69;73.96;98067.44;5238089;28;20220;-80
2021/01/12 00:36:09;;;;;;;23.77;18.57;;;-1.30;99.90;;;-0.66;74.66;98054.31;5229188;28;20204;-80
2021/01/12 00:38:41;;;;;;;25.57;19.33;;;-1.30;99.90;;;-0.59;73.79;98057.63;5233980;28;20691;-80
2021/01/12 00:41:13;;;;;;;22.97;18.83;;;-1.30;99.90;;;-0.53;73.68;98063.25;5248746;28;20228;-80
2021/01/12 00:43:45;;;;;;;23.60;18.80;;;-1.30;99.90;;;-0.33;72.54;98059.41;5245083;28;20213;-80
2021/01/12 00:46:18;;;;;;;26.50;19.57;;;-1.20;99.90;;;-0.36;72.27;98056.56;5228890;28;20576;-79
2021/01/12 00:48:50;;;;;;;22.27;18.23;;;-1.30;99.90;;;-0.33;71.60;98041.81;5233471;28;20216;-79
2021/01/12 00:51:22;;;;;;;23.53;17.53;;;-1.20;99.90;;;-0.41;72.14;98045.16;5249629;28;20657;-80
2021/01/12 00:53:54;;;;;;;22.63;17.20;;;-1.10;99.90;;;-0.49;71.43;98037.75;5244681;28;20197;-80
2021/01/12 00:56:46;;;;;;;20.27;16.17;;;-1.10;99.90;;;-0.43;71.25;98037.47;5229126;28;20562;-80
2021/01/12 00:59:18;;;;;;;22.17;17.23;;;-1.20;99.90;;;-0.26;70.60;98029.13;5230015;28;20213;-80
2021/01/12 01:01:51;;;;;;;20.60;17.13;;;-1.00;99.90;;;-0.24;70.01;98017.63;5227991;28;20598;-79
2021/01/12 01:04:23;;;;;;;22.20;16.77;;;-1.10;99.90;;;-0.17;70.41;98004.97;5234787;28;20214;-79
2021/01/12 01:06:55;;;;;;;20.97;16.33;;;-1.10;99.90;;;-0.17;69.79;98009.06;5249703;28;20569;-80
2021/01/12 01:09:27;;;;;;;22.03;16.77;;;-1.10;99.90;;;-0.12;69.96;98002.91;5248712;28;20224;-79
2021/01/12 01:11:59;;;;;;;20.70;16.43;;;-1.00;99.90;;;-0.28;70.43;98003.88;5248643;28;20430;-80
2021/01/12 01:14:31;;;;;;;20.27;15.70;;;-1.10;99.90;;;-0.21;70.16;97994.44;5242496;28;20578;-80
2021/01/12 01:17:04;;;;;;;18.00;14.80;;;-1.10;99.90;;;-0.12;69.36;97996.25;5228185;28;20591;-79
2021/01/12 01:19:36;;;;;;;18.93;16.77;;;-0.90;99.90;;;-0.06;69.62;97994.38;5234917;28;20208;-79
2021/01/12 01:22:08;;;;;;;23.37;17.63;;;-0.90;99.90;;;-0.21;70.62;98002.88;5249159;28;20225;-79
2021/01/12 01:24:40;;;;;;;23.03;17.90;;;-0.90;99.90;;;-0.31;71.35;98007.72;5247516;28;20204;-80
2021/01/12 01:27:12;;;;;;;24.90;18.63;;;-1.00;99.90;;;-0.26;71.18;98006.53;5248463;28;20240;-79
2021/01/12 01:29:44;;;;;;;23.20;18.93;;;-1.00;99.90;;;-0.13;71.37;98002.00;5248339;28;20196;-80
2021/01/12 01:32:17;;;;;;;20.90;17.10;;;-0.90;99.90;;;-0.22;71.50;98003.63;5248952;28;20229;-80
2021/01/12 01:34:49;;;;;;;21.63;17.23;;;-0.90;99.90;;;-0.19;71.06;98003.91;5247937;28;20202;-80
2021/01/12 01:37:21;;;;;;;22.63;17.37;;;-0.90;99.90;;;-0.26;72.25;97996.50;5248691;28;20581;-80
2021/01/12 01:39:53;;;;;;;25.37;18.27;;;-1.00;99.90;;;-0.21;71.35;98000.34;5243331;28;20193;-79
2021/01/12 01:42:25;;;;;;;22.70;18.87;;;-1.00;99.90;;;-0.12;71.83;97991.22;5228235;28;20286;-80
2021/01/12 01:44:58;;;;;;;23.37;18.90;;;-0.90;99.90;;;-0.40;73.36;98006.78;5228720;28;20200;-79
2021/01/12 01:47:31;;;;;;;25.20;19.23;;;-1.00;99.90;;;-0.52;73.74;98012.31;5227922;28;20199;-80
2021/01/12 01:50:04;;;;;;;24.50;19.00;;;-1.10;99.90;;;-0.50;74.01;98003.34;5227051;28;20224;-79
2021/01/12 01:52:36;;;;;;;23.07;18.40;;;-1.20;99.90;;;-0.49;74.62;97980.03;5227541;28;20218;-80
2021/01/12 01:55:09;;;;;;;22.37;17.43;;;-1.20;99.90;;;-0.31;73.31;97988.50;5236297;28;20248;-80
2021/01/12 01:57:41;;;;;;;24.77;19.10;;;-1.10;99.90;;;-0.24;73.50;97982.47;5248875;28;20196;-79
2021/01/12 02:00:16;;;;;;;21.20;17.37;;;-1.10;99.90;;;-0.06;71.76;97976.78;5244479;28;20223;-79
2021/01/12 02:03:02;;;;;;;21.13;16.67;;;-0.90;99.90;;;-0.27;73.34;97977.16;5248316;28;20231;-80
2021/01/12 02:05:39;;;;;;;21.07;16.27;;;-1.00;99.90;;;-0.20;73.75;97974.53;5237135;28;20674;-80
2021/01/12 02:08:19;;;;;;;17.63;14.53;;;-1.00;99.90;;;-0.11;72.81;97960.38;5242205;28;20208;-79
2021/01/12 02:10:55;;;;;;;23.47;17.57;;;-0.90;99.90;;;-0.12;73.73;97961.09;5239234;28;20197;-80
2021/01/12 02:13:31;;;;;;;20.30;17.20;;;-0.80;99.90;;;-0.14;74.18;97945.00;5232220;28;20446;-80
2021/01/12 02:16:04;;;;;;;19.73;14.60;;;-0.90;99.90;;;-0.09;74.44;97943.78;5245809;28;20593;-79
2021/01/12 02:18:38;;;;;;;18.27;14.03;;;-0.80;99.90;;;0.15;73.57;97934.41;5250381;28;20686;-79
2021/01/12 02:21:10;;;;;;;17.90;14.13;;;-0.70;99.90;;;0.18;73.38;97939.72;5252532;28;20222;-79
2021/01/12 02:23:52;;;;;;;17.40;14.43;;;-0.60;99.90;;;0.10;73.67;97931.44;5251261;28;20227;-79
2021/01/12 02:26:27;;;;;;;15.73;13.07;;;-0.60;99.90;;;0.16;73.27;97936.19;5252274;28;20681;-79
2021/01/12 02:28:59;;;;;;;14.87;12.27;;;-0.50;99.90;;;0.29;73.36;97926.59;5240513;28;20204;-80
2021/01/12 02:31:31;;;;;;;12.27;10.57;;;-0.50;99.90;;;0.32;73.70;97929.41;5230787;28;20755;-80
2021/01/12 02:34:08;;;;;;;12.50;11.20;;;-0.40;99.90;;;0.43;73.77;97918.75;5242245;28;20300;-80
2021/01/12 02:36:41;;;;;;;11.23;9.83;;;-0.30;99.90;;;0.46;73.56;97913.13;5252399;28;20200;-80
2021/01/12 02:39:15;;;;;;;13.00;10.47;;;-0.10;99.90;;;0.58;73.31;97913.44;5251627;28;20208;-79
2021/01/12 02:41:47;;;;;;;10.77;9.23;;;0.00;99.90;;;0.64;73.14;97903.94;5251574;28;20219;-80
2021/01/12 02:44:22;;;;;;;11.17;9.90;;;0.10;99.90;;;0.67;73.33;97899.22;5251097;28;20207;-80
2021/01/12 02:46:54;;;;;;;10.90;9.33;;;0.10;99.90;;;0.85;72.87;97890.00;5252757;28;20201;-79
2021/01/12 02:49:27;;;;;;;10.93;9.77;;;0.20;99.90;;;0.76;73.30;97895.03;5238080;28;20288;-80
2021/01/12 02:51:59;;;;;;;10.73;9.57;;;0.20;99.90;;;0.83;72.67;97882.31;5230804;28;20201;-80
2021/01/12 02:54:33;;;;;;;11.57;10.37;;;0.30;99.90;;;0.88;72.86;97880.22;5243928;28;20200;-80
2021/01/12 02:57:05;;;;;;;10.67;9.60;;;0.30;99.90;;;0.84;73.42;97879.06;5251185;28;20203;-80
2021/01/12 02:59:37;;;;;;;10.47;9.37;;;0.30;99.90;;;0.94;72.91;97872.38;5236960;28;20204;-78
2021/01/12 03:02:09;;;;;;;10.50;9.40;;;0.30;99.90;;;0.88;72.79;97863.50;5231153;28;20858;-79
2021/01/12 03:04:41;;;;;;;9.13;8.20;;;0.40;99.90;;;1.01;73.23;97862.16;5230265;28;20205;-80
2021/01/12 03:07:13;;;;;;;9.60;8.60;;;0.40;99.90;;;0.99;72.97;97856.06;5239103;28;20669;-80
2021/01/12 03:09:46;;;;;;;10.00;8.60;;;0.40;99.90;;;0.97;73.13;97850.00;5244407;28;20200;-80
2021/01/12 03:12:18;;;;;;;9.93;8.63;;;0.40;99.90;;;0.95;73.81;97851.50;5230681;28;20218;-80
2021/01/12 03:14:50;;;;;;;10.40;9.30;;;0.40;99.90;;;0.87;73.99;97854.19;5238018;28;20260;-80
2021/01/12 03:17:22;;;;;;;10.97;9.30;;;0.40;99.90;;;1.01;73.59;97842.91;5251070;28;20200;-81
2021/01/12 03:19:54;;;;;;;9.63;8.70;;;0.40;99.90;;;1.11;72.31;97839.59;5242979;28;20207;-80
2021/01/12 03:22:26;;;;;;;9.20;8.30;;;0.40;99.90;;;1.11;72.33;97830.41;5230656;28;20226;-80
2021/01/12 03:24:59;;;;;;;8.63;7.83;;;0.60;99.90;;;1.10;72.55;97828.66;5231933;28;20212;-79
2021/01/12 03:27:31;;;;;;;8.87;7.77;;;0.50;99.90;;;1.15;72.26;97829.06;5230574;28;20185;-80
2021/01/12 03:30:04;;;;;;;8.90;7.97;;;0.50;99.90;;;1.12;73.19;97819.63;5237580;28;20196;-80
2021/01/12 03:32:36;;;;;;;8.40;7.70;;;0.50;99.90;;;1.16;72.68;97823.28;5250581;28;20220;-80
2021/01/12 03:35:10;;;;;;;8.00;7.20;;;0.50;99.90;;;1.22;72.83;97828.88;5242785;28;20281;-79
2021/01/12 03:37:42;;;;;;;8.37;7.40;;;0.50;99.90;;;1.24;72.98;97818.97;5230027;28;20194;-81
2021/01/12 03:40:15;;;;;;;8.70;7.80;;;0.60;99.90;;;1.33;72.22;97812.25;5235595;28;20201;-81
2021/01/12 03:42:47;;;;;;;7.13;6.43;;;0.60;99.90;;;1.35;72.26;97816.69;5230027;28;20224;-80
2021/01/12 03:45:19;;;;;;;7.77;6.80;;;0.60;99.90;;;1.42;72.10;97808.06;5238109;28;20197;-80
2021/01/12 03:47:51;;;;;;;7.10;6.50;;;0.70;99.90;;;1.62;71.07;97807.34;5250198;28;20203;-80
2021/01/12 03:50:27;;;;;;;7.20;6.60;;;0.80;99.90;;;1.70;70.58;97808.03;5242251;28;20320;-79
2021/01/12 03:52:59;;;;;;;7.57;6.87;;;0.80;99.90;;;1.83;70.04;97797.41;5229375;28;20213;-79
2021/01/12 03:55:31;;;;;;;7.37;6.67;;;1.00;99.90;;;1.91;70.38;97791.41;5237292;28;20201;-80
2021/01/12 03:58:04;;;;;;;6.73;6.10;;;1.10;99.90;;;1.88;70.07;97783.59;5229946;28;20198;-81
2021/01/12 04:00:36;;;;;;;6.80;6.10;;;1.10;99.90;;;1.80;70.51;97781.28;5238980;28;20220;-80
2021/01/12 04:03:08;;;;;;;6.40;5.80;;;1.10;99.90;;;1.72;70.42;97764.59;5249853;28;20216;-81
2021/01/12 04:05:40;;;;;;;6.03;5.53;;;1.00;99.90;;;1.87;71.09;97754.13;5240758;28;20193;-81
2021/01/12 04:08:12;;;;;;;6.33;5.83;;;1.10;99.90;;;1.78;71.40;97756.72;5229995;28;20208;-79
2021/01/12 04:10:45;;;;;;;5.70;5.20;;;1.10;99.90;;;1.85;70.60;97751.44;5238510;28;20687;-80
2021/01/12 04:13:17;;;;;;;6.40;5.80;;;1.10;99.90;;;1.99;70.21;97747.63;5249318;28;20596;-80
2021/01/12 04:15:49;;;;;;;6.07;5.57;;;1.20;99.90;;;1.96;71.28;97744.84;5240414;28;20198;-82
2021/01/12 04:18:21;;;;;;;6.00;5.40;;;1.20;99.90;;;2.03;70.78;97739.56;5229125;28;20667;-80
2021/01/12 04:20:53;;;;;;;5.43;5.00;;;1.30;99.90;;;2.13;70.85;97737.13;5238370;28;20631;-80
2021/01/12 04:23:25;;;;;;;5.23;4.93;;;1.30;99.90;;;2.18;71.43;97727.44;5249967;28;20221;-79
2021/01/12 04:25:58;;;;;;;5.43;5.00;;;1.30;99.90;;;2.22;70.49;97725.28;5230086;28;20226;-80
2021/01/12 04:28:30;;;;;;;5.33;4.93;;;1.30;99.90;;;2.34;70.03;97722.06;5229097;28;20205;-81
2021/01/12 04:31:02;;;;;;;5.10;4.70;;;1.50;99.90;;;2.25;69.70;97724.69;5248001;28;20197;-80
2021/01/12 04:33:35;;;;;;;5.17;4.70;;;1.50;99.90;;;2.34;69.97;97715.38;5250072;28;20272;-80
2021/01/12 04:36:08;;;;;;;4.83;4.43;;;1.50;99.90;;;2.34;69.53;97710.34;5248194;28;20229;-80
2021/01/12 04:38:40;;;;;;;5.23;4.83;;;1.60;99.90;;;2.46;68.87;97706.38;5249936;28;20203;-80
2021/01/12 04:41:15;;;;;;;5.07;4.67;;;1.70;99.90;;;2.34;69.61;97699.38;5229437;28;20312;-79
2021/01/12 04:43:47;;;;;;;5.47;4.93;;;1.70;99.90;;;2.41;68.89;97689.94;5241169;28;20310;-80
2021/01/12 04:46:19;;;;;;;4.40;4.10;;;1.80;99.90;;;2.54;69.12;97690.97;5249910;28;20574;-81
2021/01/12 04:48:51;;;;;;;5.10;4.70;;;1.90;99.90;;;2.56;68.96;97685.31;5237214;28;20239;-80
2021/01/12 04:51:28;;;;;;;4.43;4.10;;;1.90;99.90;;;2.51;69.01;97681.50;5229176;28;20204;-80
2021/01/12 04:54:00;;;;;;;4.53;4.13;;;1.90;99.90;;;2.48;69.33;97684.66;5246305;28;20223;-79
2021/01/12 04:56:33;;;;;;;4.67;4.37;;;1.90;99.90;;;2.59;68.54;97678.00;5249555;28;20292;-80
2021/01/12 04:59:05;;;;;;;5.07;4.67;;;1.90;99.90;;;2.57;69.10;97671.94;5231653;28;20194;-80
2021/01/12 05:01:37;;;;;;;4.87;4.47;;;2.00;99.90;;;2.54;68.64;97675.84;5228238;28;20316;-80
2021/01/12 05:04:14;;;;;;;5.40;5.00;;;2.00;99.90;;;2.56;69.25;97665.13;5246425;28;20220;-80
2021/01/12 05:06:46;;;;;;;4.77;4.37;;;2.00;99.90;;;2.58;69.56;97663.63;5249978;28;20576;-79
2021/01/12 05:09:22;;;;;;;4.60;4.20;;;1.90;99.90;;;2.56;69.58;97655.03;5229940;28;20287;-80
2021/01/12 05:11:57;;;;;;;5.13;4.67;;;2.10;99.90;;;2.48;69.18;97641.78;5243726;28;20198;-79
2021/01/12 05:14:32;;;;;;;5.20;4.70;;;2.10;99.90;;;2.53;69.55;97662.34;5247339;28;20197;-79
2021/01/12 05:17:05;;;;;;;4.90;4.60;;;2.10;99.90;;;2.55;69.42;97645.72;5248936;28;20201;-80
2021/01/12 05:19:40;;;;;;;5.50;5.00;;;2.10;99.90;;;2.55;69.18;97644.81;5241014;28;20197;-79
2021/01/12 05:22:15;;;;;;;4.80;4.37;;;2.10;99.90;;;2.51;69.51;97633.59;5228583;28;20231;-79
2021/01/12 05:24:49;;;;;;;5.13;4.80;;;2.00;99.90;;;2.57;70.00;97643.31;5237817;28;20287;-79
2021/01/12 05:27:22;;;;;;;5.50;5.10;;;2.20;99.90;;;2.53;69.95;97637.13;5249206;28;20209;-80
2021/01/12 05:30:03;;;;;;;5.10;4.60;;;2.20;99.90;;;2.55;70.80;97649.84;5238666;28;20211;-79
2021/01/12 05:32:37;;;;;;;5.37;4.97;;;2.10;99.90;;;2.61;69.82;97641.19;5228433;28;20240;-79
2021/01/12 05:35:11;;;;;;;5.47;4.97;;;2.10;99.90;;;2.63;70.31;97642.22;5240456;28;20205;-79
2021/01/12 05:37:44;;;;;;;5.33;4.93;;;2.00;99.90;;;2.65;70.80;97650.75;5249449;28;20211;-80
2021/01/12 05:40:17;;;;;;;5.80;5.30;;;2.00;99.90;;;2.50;70.46;97662.09;5237818;28;20570;-79
2021/01/12 05:42:50;;;;;;;5.63;5.23;;;2.00;99.90;;;2.57;71.29;97656.81;5246974;28;20238;-79
2021/01/12 05:45:22;;;;;;;6.23;5.73;;;2.00;99.90;;;2.66;70.19;97647.50;5248402;28;20195;-80
2021/01/12 05:47:57;;;;;;;5.93;5.33;;;1.90;99.90;;;2.75;70.45;97654.06;5241460;28;20591;-80
2021/01/12 05:50:30;;;;;;;5.77;5.27;;;1.90;99.90;;;2.68;70.29;97640.94;5228282;28;20195;-80
2021/01/12 05:53:07;;;;;;;6.53;5.83;;;1.90;99.90;;;2.69;71.12;97656.97;5234057;28;20218;-81
2021/01/12 05:55:42;;;;;;;6.87;6.17;;;2.00;99.90;;;2.56;72.22;97657.56;5238994;28;20196;-80
2021/01/12 05:58:21;;;;;;;6.70;6.10;;;1.90;99.90;;;2.61;71.46;97655.44;5232276;28;20212;-81
2021/01/12 06:00:54;;;;;;;6.03;5.50;;;1.80;99.90;;;2.62;70.92;97648.00;5229269;28;20222;-81
2021/01/12 06:03:29;;;;;;;6.57;6.07;;;1.90;99.90;;;2.49;71.21;97645.22;5236118;28;20209;-81
2021/01/12 06:06:01;;;;;;;6.57;5.97;;;1.80;99.90;;;2.52;71.96;97640.41;5232782;28;20197;-81
2021/01/12 06:08:34;;;;;;;7.47;6.87;;;1.70;99.90;;;2.57;71.31;97628.19;5231238;28;20228;-82
2021/01/12 06:11:07;;;;;;;7.17;6.57;;;1.80;99.90;;;2.64;70.71;97626.31;5238939;28;20574;-82
2021/01/12 06:13:54;;;;;;;6.10;5.50;;;1.90;99.90;;;2.48;71.99;97623.25;5247384;28;20598;-83
2021/01/12 06:16:34;;;;;;;7.40;6.70;;;1.80;99.90;;;2.32;73.19;97610.09;5232838;28;20200;-82
2021/01/12 06:19:12;;;;;;;6.63;6.00;;;1.70;99.90;;;2.46;72.58;97600.44;5243623;28;20199;-84
2021/01/12 06:22:14;;;;;;;6.73;6.13;;;1.80;99.90;;;2.52;72.60;97600.06;5239675;28;20227;-82
2021/01/12 06:24:59;;;;;;;6.40;5.80;;;1.80;99.90;;;2.57;74.34;97608.88;5246556;28;20744;-81
2021/01/12 06:27:32;;;;;;;6.80;6.20;;;1.80;99.90;;;2.58;75.17;97614.81;5246613;28;20207;-81
2021/01/12 06:30:08;;;;;;;6.00;5.30;;;1.80;99.90;;;2.44;75.68;97612.03;5224273;28;20693;-83
2021/01/12 06:32:40;;;;;;;6.93;6.13;;;1.70;99.90;;;2.39;76.79;97604.81;5231099;28;20216;-80
2021/01/12 06:35:13;;;;;;;6.97;6.30;;;1.70;99.90;;;2.48;76.11;97610.63;5230585;28;20206;-81
2021/01/12 06:37:50;;;;;;;6.67;6.07;;;1.70;99.90;;;2.42;75.31;97603.44;5242996;28;20477;-81
2021/01/12 06:40:22;;;;;;;7.17;6.00;;;1.70;99.90;;;2.57;76.24;97595.38;5241920;28;20200;-81
2021/01/12 06:42:58;;;;;;;7.77;5.90;;;1.70;99.90;;;2.57;76.40;97595.38;5245580;28;20228;-80
2021/01/12 06:45:37;;;;;;;7.20;6.50;;;1.70;99.90;;;2.54;76.23;97588.44;5230384;28;20384;-81
2021/01/12 06:48:14;;;;;;;6.50;5.90;;;1.70;99.90;;;2.53;77.64;97585.81;5244240;28;20193;-82
2021/01/12 06:50:46;;;;;;;6.83;5.97;;;1.60;99.90;;;2.47;78.03;97576.09;5238292;28;20695;-82
2021/01/12 06:53:21;;;;;;;5.43;4.90;;;1.60;99.90;;;2.44;79.32;97570.78;5230251;28;20213;-82
2021/01/12 06:56:05;;;;;;;6.63;6.00;;;1.60;99.90;;;2.43;79.57;97569.00;5239993;28;20656;-82
2021/01/12 06:58:37;;;;;;;6.87;6.17;;;1.60;99.90;;;2.30;80.83;97569.63;5234577;28;20201;-82
2021/01/12 07:01:20;;;;;;;6.27;5.53;;;1.60;99.90;;;2.30;81.34;97556.16;5233432;28;20224;-82
2021/01/12 07:03:53;;;;;;;5.67;5.13;;;1.60;99.90;;;2.36;80.58;97564.22;5229263;28;20228;-82
2021/01/12 07:06:26;;;;;;;5.97;5.37;;;1.70;99.90;;;2.30;80.98;97548.59;5239506;28;20194;-83
2021/01/12 07:09:00;;;;;;;6.83;4.87;;;1.70;99.90;;;2.28;81.30;97540.88;5250136;28;20206;-79
2021/01/12 07:11:32;;;;;;;5.47;4.97;;;1.80;99.90;;;2.32;81.16;97539.50;5239794;28;20197;-82
2021/01/12 07:14:04;;;;;;;5.33;4.87;;;1.80;99.90;;;2.35;82.51;97537.25;5229008;28;20226;-81
2021/01/12 07:16:37;;;;;;;6.43;5.87;;;1.80;99.90;;;2.34;82.33;97533.81;5234664;28;20201;-81
2021/01/12 07:19:09;;;;;;;5.30;4.90;;;1.70;99.90;;;2.48;82.76;97517.31;5248956;28;20669;-81
2021/01/12 07:21:42;;;;;;;5.37;4.97;;;1.80;99.90;;;2.53;81.87;97510.13;5241143;28;20227;-79
2021/01/12 07:24:17;;;;;;;4.90;4.50;;;1.90;99.90;;;2.55;80.89;97514.56;5229426;28;20226;-79
2021/01/12 07:26:50;;;;;;;4.80;4.40;;;2.00;99.90;;;2.52;81.81;97521.88;5240765;28;20649;-80
2021/01/12 07:29:22;;;;;;;5.20;4.70;;;2.00;99.90;;;2.60;80.84;97510.75;5232938;28;20206;-79
2021/01/12 07:32:03;;;;;;;4.37;4.07;;;2.00;99.90;;;2.50;82.36;97513.28;5246603;28;20207;-78
2021/01/12 07:34:36;;;;;;;4.60;4.20;;;2.00;99.90;;;2.63;81.57;97508.50;5258470;28;20211;-80
2021/01/12 07:37:13;;;;;;;4.30;3.90;;;2.10;99.90;;;2.60;81.37;97493.09;5242599;28;20203;-78
2021/01/12 07:39:45;;;;;;;4.70;4.23;;;2.00;99.90;;;2.64;81.93;97505.22;5229058;28;20203;-79
2021/01/12 07:42:17;;;;;;;6.63;5.33;;;2.00;99.90;;;2.65;81.78;97496.00;5233452;28;20235;-79
2021/01/12 07:44:49;;;;;;;5.63;5.10;;;2.00;99.90;;;2.58;82.65;97506.34;5236201;28;20192;-79
2021/01/12 07:47:22;;;;;;;4.97;4.57;;;1.90;99.90;;;2.61;82.71;97494.00;5234907;28;20192;-79
2021/01/12 07:49:55;;;;;;;5.53;5.03;;;1.90;99.90;;;2.51;82.59;97491.47;5237016;28;20209;-78
2021/01/12 07:52:28;;;;;;;5.20;4.80;;;1.90;99.90;;;2.42;82.85;97489.06;5233771;28;20750;-80
2021/01/12 07:55:00;;;;;;;5.60;5.10;;;1.80;99.90;;;2.34;83.58;97495.13;5234922;28;20201;-80
2021/01/12 07:57:33;;;;;;;5.87;5.37;;;1.80;99.90;;;2.34;83.98;97487.56;5239278;28;20197;-81
2021/01/12 08:00:09;;;;;;;5.83;4.70;;;1.80;99.90;;;2.38;84.73;97490.47;5242516;28;20204;-80
2021/01/12 08:02:45;;;;;;;5.53;5.03;;;1.80;99.90;;;2.36;84.76;97483.53;5232182;28;20249;-79
2021/01/12 08:05:19;;;;;;;6.30;5.80;;;1.70;99.90;;;2.36;84.85;97496.13;5245797;28;20200;-78
2021/01/12 08:07:59;;;;;;;5.80;5.20;;;1.70;99.90;;;2.30;85.99;97500.69;5234193;28;20211;-80
2021/01/12 08:10:35;;;;;;;7.23;6.03;;;1.60;99.90;;;2.20;85.93;97488.94;5239439;28;20204;-82
2021/01/12 08:13:09;;;;;;;6.20;5.60;;;1.60;99.90;;;2.25;86.27;97495.25;5227956;28;20217;-79
2021/01/12 08:15:44;;;;;;;7.20;6.50;;;1.60;99.90;;;2.09;86.62;97495.63;5234548;28;20765;-79
2021/01/12 08:18:21;;;;;;;7.53;6.83;;;1.50;99.90;;;2.02;87.65;97499.25;5230800;28;20289;-79
2021/01/12 08:20:55;;;;;;;8.53;7.40;;;1.50;99.90;;;1.95;87.89;97502.03;5249192;28;20562;-81
2021/01/12 08:23:27;;;;;;;8.03;7.23;;;1.50;99.90;;;1.95;87.42;97506.19;5249249;28;20254;-81
2021/01/12 08:25:58;;;;;;;8.33;7.23;;;1.50;99.90;;;1.97;87.32;97494.59;5258415;28;20725;-81
2021/01/12 08:28:31;;;;;;;9.10;7.27;;;1.40;99.90;;;1.90;88.31;97494.84;5249100;28;20303;-79
2021/01/12 08:31:03;;;;;;;9.07;8.10;;;1.30;99.90;;;1.84;88.07;97501.88;5258835;28;20199;-80
2021/01/12 08:33:40;;;;;;;9.40;8.30;;;1.30;99.90;;;1.84;88.96;97490.16;5249508;28;20243;-81
2021/01/12 08:36:17;;;;;;;9.50;8.37;;;1.30;99.90;;;1.87;88.67;97482.00;5238610;28;20215;-79
2021/01/12 08:38:52;;;;;;;10.53;9.03;;;1.30;99.90;;;2.00;87.77;97494.84;5228683;28;20229;-78
2021/01/12 08:41:26;;;;;;;10.20;8.83;;;1.40;99.90;;;1.88;88.61;97493.81;5230165;28;20284;-79
2021/01/12 08:44:00;;;;;;;9.33;8.33;;;1.40;99.90;;;1.77;88.89;97485.34;5229877;28;20221;-79
2021/01/12 08:46:33;;;;;;;11.70;9.80;;;1.30;99.90;;;1.76;89.07;97488.63;5247991;28;20625;-79
2021/01/12 08:49:06;;;;;;;10.90;9.53;;;1.30;99.90;;;1.78;88.89;97490.53;5235609;28;20680;-79
2021/01/12 08:51:39;;;;;;;12.23;10.07;;;1.30;99.90;;;1.71;89.49;97487.34;5249860;28;20261;-80
2021/01/12 08:54:15;;;;;;;10.93;9.83;;;1.30;99.90;;;1.67;89.41;97483.69;5236118;28;20225;-79
2021/01/12 08:56:56;;;;;;;9.93;8.93;;;1.30;99.90;;;1.65;90.09;97477.66;5243290;28;20193;-80
2021/01/12 08:59:29;;;;;;;11.30;9.13;;;1.20;99.90;;;1.65;90.37;97485.19;5272290;28;20720;-80
2021/01/12 09:02:02;;;;;;;12.40;10.27;;;1.20;99.90;;;1.78;90.59;97467.84;5268760;28;20224;-79
2021/01/12 09:04:35;;;;;;;11.63;9.93;;;1.20;99.90;;;1.77;90.01;97485.34;5243404;28;20271;-81
2021/01/12 09:07:08;;;;;;;10.47;8.67;;;1.20;99.90;;;1.88;89.35;97468.63;5238122;28;20268;-79
2021/01/12 09:09:50;;;;;;;9.43;8.50;;;1.20;99.90;;;1.80;89.41;97484.00;5238561;28;20749;-80
2021/01/12 09:12:23;;;;;;;9.23;8.00;;;1.30;99.90;;;1.77;91.01;97460.16;5231071;28;20805;-78
2021/01/12 09:14:55;;;;;;;7.63;6.93;;;1.30;99.90;;;1.86;89.94;97476.06;5230022;28;20759;-79
2021/01/12 09:17:26;;;;;;;9.03;8.23;;;1.30;99.90;;;1.82;90.65;97463.94;5240929;28;20200;-80
2021/01/12 09:19:59;;;;;;;9.43;7.93;;;1.30;99.90;;;1.96;90.32;97467.63;5235385;28;20195;-79
2021/01/12 09:22:32;;;;;;;8.77;7.77;;;1.30;99.90;;;2.17;89.69;97445.84;5230912;28;20228;-80
2021/01/12 09:25:07;;;;;;;8.73;7.93;;;1.40;99.90;;;2.16;90.04;97457.56;5250031;28;20203;-78
2021/01/12 09:27:52;;;;;;;6.50;5.50;;;1.50;99.90;;;2.31;90.02;97452.00;5247787;28;20223;-79
2021/01/12 09:30:24;;;;;;;6.40;5.33;;;1.70;99.90;;;2.23;89.80;97449.75;5230236;28;20212;-78
2021/01/12 09:32:56;;;;;;;5.40;5.00;;;1.80;99.90;;;2.41;89.29;97439.41;5230860;28;20287;-78
2021/01/12 09:35:29;;;;;;;4.80;4.40;;;1.90;99.90;;;2.44;90.30;97440.53;5249068;28;20206;-78
2021/01/12 09:38:03;;;;;;;4.33;3.93;;;1.90;99.90;;;2.56;89.30;97434.72;5245517;28;20192;-79
2021/01/12 09:40:35;;;;;;;4.57;4.17;;;2.00;99.90;;;2.61;89.09;97443.53;5228680;28;20199;-79
2021/01/12 09:43:07;;;;;;;4.53;4.13;;;2.00;99.90;;;2.62;88.84;97436.06;5227227;28;20235;-78
2021/01/12 09:45:39;;;;;;;4.10;3.80;;;2.10;99.90;;;2.62;88.66;97440.25;5227307;28;20283;-78
2021/01/12 09:48:16;;;;;;;4.63;4.23;;;2.10;99.90;;;2.66;89.09;97433.06;5232169;28;20545;-79
2021/01/12 09:50:48;;;;;;;4.80;4.40;;;2.10;99.90;;;2.63;89.25;97432.81;5232167;28;20228;-79
2021/01/12 09:53:21;;;;;;;5.23;4.50;;;2.20;99.90;;;2.68;89.09;97426.47;5248045;28;20215;-81
2021/01/12 09:55:53;;;;;;;5.57;4.40;;;2.20;99.90;;;2.54;89.40;97432.06;5250012;28;20199;-79
2021/01/12 09:58:29;;;;;;;5.23;4.73;;;2.10;99.90;;;2.58;89.45;97428.16;5250234;28;20558;-79
2021/01/12 10:01:01;;;;;;;5.57;5.07;;;2.10;99.90;;;2.59;89.83;97430.78;5235586;28;20198;-79
2021/01/12 10:03:33;;;;;;;5.30;4.80;;;2.10;99.90;;;2.61;89.77;97419.19;5226145;28;20222;-79
2021/01/12 10:06:07;;;;;;;5.87;5.27;;;2.20;99.90;;;2.46;90.40;97417.94;5227099;28;20205;-79
2021/01/12 10:08:39;;;;;;;5.73;5.17;;;2.10;99.90;;;2.48;90.49;97408.88;5226274;28;20208;-80
2021/01/12 10:11:11;;;;;;;7.63;5.47;;;2.00;99.90;;;2.51;90.74;97418.31;5242515;28;20226;-80
2021/01/12 10:13:45;;;;;;;6.20;5.70;;;1.90;99.90;;;2.40;91.56;97413.28;5244702;28;20260;-78
2021/01/12 10:16:21;;;;;;;6.57;5.97;;;1.90;99.90;;;2.28;91.57;97413.94;5245849;28;20204;-80
2021/01/12 10:18:54;;;;;;;7.13;6.30;;;1.80;99.90;;;2.37;91.85;97407.13;5239283;28;20284;-79
2021/01/12 10:21:28;;;;;;;6.97;5.97;;;1.90;99.90;;;2.25;91.73;97419.63;5247924;28;20325;-79
2021/01/12 10:23:59;;;;;;;6.93;6.23;;;1.80;99.90;;;2.16;93.03;97414.69;5246787;28;20223;-79
2021/01/12 10:26:32;;;;;;;8.13;6.37;;;1.70;99.90;;;2.16;93.70;97401.22;5237793;28;20204;-80
2021/01/12 10:29:04;;;;;;;20.20;14.70;;;1.80;99.90;;;2.03;93.44;97410.31;5228916;28;20270;-79
2021/01/12 10:31:37;;;;;;;10.73;9.10;;;1.70;99.90;;;2.07;94.02;97406.41;5232226;28;20219;-82
2021/01/12 10:34:09;;;;;;;8.57;7.53;;;1.70;99.90;;;2.06;94.91;97403.75;5231681;28;20230;-80
2021/01/12 10:36:43;;;;;;;8.73;7.87;;;1.60;99.90;;;2.15;94.18;97392.78;5242026;28;20204;-82
2021/01/12 10:39:15;;;;;;;7.60;6.90;;;1.70;99.90;;;2.20;93.97;97383.97;5251515;28;20591;-83
2021/01/12 10:41:47;;;;;;;8.23;6.97;;;1.70;99.90;;;2.07;94.97;97390.41;5242759;28;20222;-80
2021/01/12 10:44:19;;;;;;;8.20;6.90;;;1.60;99.90;;;2.01;94.73;97390.78;5235940;28;20243;-80
2021/01/12 10:46:55;;;;;;;8.40;7.50;;;1.60;99.90;;;1.96;94.70;97387.00;5233465;28;20194;-82
2021/01/12 10:49:27;;;;;;;7.23;6.50;;;1.60;99.90;;;2.09;95.23;97374.66;5249335;28;20695;-82
2021/01/12 10:52:02;;;;;;;10.00;7.57;;;1.60;99.90;;;2.10;95.62;97373.00;5242811;28;20613;-81